sensor_id;sensor_type;location;lat;lon;timestamp;temperature;humidity
17599;DHT22;8918;52.092;5.232;2023-04-24T00:00:32;9.80;99.90
17599;DHT22;8918;52.092;5.232;2023-04-24T00:02:58;9.80;99.90
17599;DHT22;8918;52.092;5.232;2023-04-24T00:05:24;9.80;99.90
17599;DHT22;8918;52.092;5.232;2023-04-24T00:07:50;9.80;99.90
17599;DHT22;8918;52.092;5.232;2023-04-24T00:10:18;9.70;99.90
17599;DHT22;8918;52.092;5.232;2023-04-24T00:12:44;9.80;99.90
17599;DHT22;8918;52.092;5.232;2023-04-24T00:15:10;9.80;99.90
17599;DHT22;8918;52.092;5.232;2023-04-24T00:17:36;9.70;99.90
17599;DHT22;8918;52.092;5.232;2023-04-24T00:20:02;9.80;99.90
17599;DHT22;8918;52.092;5.232;2023-04-24T00:22:30;9.80;99.90
17599;DHT22;8918;52.092;5.232;2023-04-24T00:24:57;9.80;99.90
17599;DHT22;8918;52.092;5.232;2023-04-24T00:27:23;9.80;99.90
17599;DHT22;8918;52.092;5.232;2023-04-24T00:29:48;9.80;99.90
17599;DHT22;8918;52.092;5.232;2023-04-24T00:32:14;9.70;99.90
17599;DHT22;8918;52.092;5.232;2023-04-24T00:34:40;9.70;99.90
17599;DHT22;8918;52.092;5.232;2023-04-24T00:37:06;9.70;99.90
17599;DHT22;8918;52.092;5.232;2023-04-24T00:39:32;9.70;99.90
17599;DHT22;8918;52.092;5.232;2023-04-24T00:41:58;9.70;99.90
17599;DHT22;8918;52.092;5.232;2023-04-24T00:44:25;9.70;99.90
17599;DHT22;8918;52.092;5.232;2023-04-24T00:46:51;9.70;99.90
17599;DHT22;8918;52.092;5.232;2023-04-24T00:49:22;9.70;99.90
17599;DHT22;8918;52.092;5.232;2023-04-24T00:51:48;9.70;99.90
17599;DHT22;8918;52.092;5.232;2023-04-24T00:54:14;9.70;99.90
17599;DHT22;8918;52.092;5.232;2023-04-24T00:56:42;9.70;99.90
17599;DHT22;8918;52.092;5.232;2023-04-24T00:59:08;9.70;99.90
17599;DHT22;8918;52.092;5.232;2023-04-24T01:01:34;9.70;99.90
17599;DHT22;8918;52.092;5.232;2023-04-24T01:04:00;9.80;99.90
17599;DHT22;8918;52.092;5.232;2023-04-24T01:06:28;9.80;99.90
17599;DHT22;8918;52.092;5.232;2023-04-24T01:08:54;9.80;99.90
17599;DHT22;8918;52.092;5.232;2023-04-24T01:11:21;9.80;99.90
17599;DHT22;8918;52.092;5.232;2023-04-24T01:13:47;9.80;99.90
17599;DHT22;8918;52.092;5.232;2023-04-24T01:16:14;9.80;99.90
17599;DHT22;8918;52.092;5.232;2023-04-24T01:18:40;9.80;99.90
17599;DHT22;8918;52.092;5.232;2023-04-24T01:21:08;9.80;99.90
17599;DHT22;8918;52.092;5.232;2023-04-24T01:23:34;9.80;99.90
17599;DHT22;8918;52.092;5.232;2023-04-24T01:26:00;9.80;99.90
17599;DHT22;8918;52.092;5.232;2023-04-24T01:28:26;9.80;99.90
17599;DHT22;8918;52.092;5.232;2023-04-24T01:30:52;9.80;99.90
17599;DHT22;8918;52.092;5.232;2023-04-24T01:33:21;9.80;99.90
17599;DHT22;8918;52.092;5.232;2023-04-24T01:35:47;9.80;99.90
17599;DHT22;8918;52.092;5.232;2023-04-24T01:38:13;9.80;99.90
17599;DHT22;8918;52.092;5.232;2023-04-24T01:40:39;9.90;99.90
17599;DHT22;8918;52.092;5.232;2023-04-24T01:43:05;9.90;99.90
17599;DHT22;8918;52.092;5.232;2023-04-24T01:45:30;9.80;99.90
17599;DHT22;8918;52.092;5.232;2023-04-24T01:47:56;9.80;99.90
17599;DHT22;8918;52.092;5.232;2023-04-24T01:50:22;9.70;99.90
17599;DHT22;8918;52.092;5.232;2023-04-24T01:52:48;9.80;99.90
17599;DHT22;8918;52.092;5.232;2023-04-24T01:55:14;9.80;99.90
17599;DHT22;8918;52.092;5.232;2023-04-24T01:57:39;9.80;99.90
17599;DHT22;8918;52.092;5.232;2023-04-24T02:00:06;9.70;99.90
17599;DHT22;8918;52.092;5.232;2023-04-24T02:02:32;9.80;99.90
17599;DHT22;8918;52.092;5.232;2023-04-24T02:04:58;9.80;99.90
17599;DHT22;8918;52.092;5.232;2023-04-24T02:07:23;9.80;99.90
17599;DHT22;8918;52.092;5.232;2023-04-24T02:09:49;9.70;99.90
17599;DHT22;8918;52.092;5.232;2023-04-24T02:12:15;9.70;99.90
17599;DHT22;8918;52.092;5.232;2023-04-24T02:14:41;9.70;99.90
17599;DHT22;8918;52.092;5.232;2023-04-24T02:17:07;9.70;99.90
17599;DHT22;8918;52.092;5.232;2023-04-24T02:19:33;9.60;99.90
17599;DHT22;8918;52.092;5.232;2023-04-24T02:21:59;9.60;99.90
17599;DHT22;8918;52.092;5.232;2023-04-24T02:24:24;9.60;99.90
17599;DHT22;8918;52.092;5.232;2023-04-24T02:26:50;9.70;99.90
17599;DHT22;8918;52.092;5.232;2023-04-24T02:29:15;9.70;99.90
17599;DHT22;8918;52.092;5.232;2023-04-24T02:31:41;9.70;99.90
17599;DHT22;8918;52.092;5.232;2023-04-24T02:34:07;9.70;99.90
17599;DHT22;8918;52.092;5.232;2023-04-24T02:36:33;9.70;99.90
17599;DHT22;8918;52.092;5.232;2023-04-24T02:38:59;9.70;99.90
17599;DHT22;8918;52.092;5.232;2023-04-24T02:41:24;9.70;99.90
17599;DHT22;8918;52.092;5.232;2023-04-24T02:43:50;9.70;99.90
17599;DHT22;8918;52.092;5.232;2023-04-24T02:46:16;9.70;99.90
17599;DHT22;8918;52.092;5.232;2023-04-24T02:48:41;9.70;99.90
17599;DHT22;8918;52.092;5.232;2023-04-24T02:51:07;9.70;99.90
17599;DHT22;8918;52.092;5.232;2023-04-24T02:53:32;9.70;99.90
17599;DHT22;8918;52.092;5.232;2023-04-24T02:55:58;9.70;99.90
17599;DHT22;8918;52.092;5.232;2023-04-24T02:58:24;9.80;99.90
17599;DHT22;8918;52.092;5.232;2023-04-24T03:00:53;9.70;99.90
17599;DHT22;8918;52.092;5.232;2023-04-24T03:03:19;9.60;99.90
17599;DHT22;8918;52.092;5.232;2023-04-24T03:05:45;9.70;99.90
17599;DHT22;8918;52.092;5.232;2023-04-24T03:08:11;9.60;99.90
17599;DHT22;8918;52.092;5.232;2023-04-24T03:10:36;9.60;99.90
17599;DHT22;8918;52.092;5.232;2023-04-24T03:13:02;9.70;99.90
17599;DHT22;8918;52.092;5.232;2023-04-24T03:15:27;9.60;99.90
17599;DHT22;8918;52.092;5.232;2023-04-24T03:17:53;9.60;99.90
17599;DHT22;8918;52.092;5.232;2023-04-24T03:20:18;9.60;99.90
17599;DHT22;8918;52.092;5.232;2023-04-24T03:22:44;9.60;99.90
17599;DHT22;8918;52.092;5.232;2023-04-24T03:25:10;9.50;99.90
17599;DHT22;8918;52.092;5.232;2023-04-24T03:27:35;9.50;99.90
17599;DHT22;8918;52.092;5.232;2023-04-24T03:30:01;9.60;99.90
17599;DHT22;8918;52.092;5.232;2023-04-24T03:32:27;9.50;99.90
17599;DHT22;8918;52.092;5.232;2023-04-24T03:34:53;9.50;99.90
17599;DHT22;8918;52.092;5.232;2023-04-24T03:37:18;9.60;99.90
17599;DHT22;8918;52.092;5.232;2023-04-24T03:39:44;9.60;99.90
17599;DHT22;8918;52.092;5.232;2023-04-24T03:42:10;9.50;99.90
17599;DHT22;8918;52.092;5.232;2023-04-24T03:44:35;9.40;99.90
17599;DHT22;8918;52.092;5.232;2023-04-24T03:47:01;9.40;99.90
17599;DHT22;8918;52.092;5.232;2023-04-24T03:49:27;9.40;99.90
17599;DHT22;8918;52.092;5.232;2023-04-24T03:51:53;9.30;99.90
17599;DHT22;8918;52.092;5.232;2023-04-24T03:54:19;9.30;99.90
17599;DHT22;8918;52.092;5.232;2023-04-24T03:56:45;9.30;99.90
17599;DHT22;8918;52.092;5.232;2023-04-24T03:59:10;9.30;99.90
17599;DHT22;8918;52.092;5.232;2023-04-24T04:01:36;9.30;99.90
17599;DHT22;8918;52.092;5.232;2023-04-24T04:04:03;9.30;99.90
17599;DHT22;8918;52.092;5.232;2023-04-24T04:06:29;9.30;99.90
17599;DHT22;8918;52.092;5.232;2023-04-24T04:08:56;9.30;99.90
17599;DHT22;8918;52.092;5.232;2023-04-24T04:11:22;9.30;99.90
17599;DHT22;8918;52.092;5.232;2023-04-24T04:13:47;9.20;99.90
17599;DHT22;8918;52.092;5.232;2023-04-24T04:16:13;9.20;99.90
17599;DHT22;8918;52.092;5.232;2023-04-24T04:18:39;9.30;99.90
17599;DHT22;8918;52.092;5.232;2023-04-24T04:21:04;9.20;99.90
17599;DHT22;8918;52.092;5.232;2023-04-24T04:23:31;9.20;99.90
17599;DHT22;8918;52.092;5.232;2023-04-24T04:25:57;9.20;99.90
17599;DHT22;8918;52.092;5.232;2023-04-24T04:28:23;9.20;99.90
17599;DHT22;8918;52.092;5.232;2023-04-24T04:30:50;9.20;99.90
17599;DHT22;8918;52.092;5.232;2023-04-24T04:33:19;9.20;99.90
17599;DHT22;8918;52.092;5.232;2023-04-24T04:35:45;9.20;99.90
17599;DHT22;8918;52.092;5.232;2023-04-24T04:38:14;9.20;99.90
17599;DHT22;8918;52.092;5.232;2023-04-24T04:40:40;9.20;99.90
17599;DHT22;8918;52.092;5.232;2023-04-24T04:43:06;9.20;99.90
17599;DHT22;8918;52.092;5.232;2023-04-24T04:45:31;9.20;99.90
17599;DHT22;8918;52.092;5.232;2023-04-24T04:47:58;9.20;99.90
17599;DHT22;8918;52.092;5.232;2023-04-24T04:50:26;9.20;99.90
17599;DHT22;8918;52.092;5.232;2023-04-24T04:52:52;9.20;99.90
17599;DHT22;8918;52.092;5.232;2023-04-24T04:55:20;9.20;99.90
17599;DHT22;8918;52.092;5.232;2023-04-24T04:57:46;9.30;99.90
17599;DHT22;8918;52.092;5.232;2023-04-24T05:00:12;9.20;99.90
17599;DHT22;8918;52.092;5.232;2023-04-24T05:02:38;9.30;99.90
17599;DHT22;8918;52.092;5.232;2023-04-24T05:05:05;9.30;99.90
17599;DHT22;8918;52.092;5.232;2023-04-24T05:07:31;9.30;99.90
17599;DHT22;8918;52.092;5.232;2023-04-24T05:09:56;9.30;99.90
17599;DHT22;8918;52.092;5.232;2023-04-24T05:12:22;9.40;99.90
17599;DHT22;8918;52.092;5.232;2023-04-24T05:14:47;9.40;99.90
17599;DHT22;8918;52.092;5.232;2023-04-24T05:17:13;9.30;99.90
17599;DHT22;8918;52.092;5.232;2023-04-24T05:19:39;9.40;99.90
17599;DHT22;8918;52.092;5.232;2023-04-24T05:22:04;9.40;99.90
17599;DHT22;8918;52.092;5.232;2023-04-24T05:24:32;9.40;99.90
17599;DHT22;8918;52.092;5.232;2023-04-24T05:26:58;9.30;99.90
17599;DHT22;8918;52.092;5.232;2023-04-24T05:29:24;9.30;99.90
17599;DHT22;8918;52.092;5.232;2023-04-24T05:31:51;9.30;99.90
17599;DHT22;8918;52.092;5.232;2023-04-24T05:34:17;9.30;99.90
17599;DHT22;8918;52.092;5.232;2023-04-24T05:36:42;9.20;99.90
17599;DHT22;8918;52.092;5.232;2023-04-24T05:39:08;9.20;99.90
17599;DHT22;8918;52.092;5.232;2023-04-24T05:41:34;9.20;99.90
17599;DHT22;8918;52.092;5.232;2023-04-24T05:44:00;9.20;99.90
17599;DHT22;8918;52.092;5.232;2023-04-24T05:46:25;9.10;99.90
17599;DHT22;8918;52.092;5.232;2023-04-24T05:48:51;9.10;99.90
17599;DHT22;8918;52.092;5.232;2023-04-24T05:51:16;9.10;99.90
17599;DHT22;8918;52.092;5.232;2023-04-24T05:53:42;9.10;99.90
17599;DHT22;8918;52.092;5.232;2023-04-24T05:56:07;9.00;99.90
17599;DHT22;8918;52.092;5.232;2023-04-24T05:58:33;9.00;99.90
17599;DHT22;8918;52.092;5.232;2023-04-24T06:00:59;9.00;99.90
17599;DHT22;8918;52.092;5.232;2023-04-24T06:03:26;9.00;99.90
17599;DHT22;8918;52.092;5.232;2023-04-24T06:05:52;9.00;99.90
17599;DHT22;8918;52.092;5.232;2023-04-24T06:08:18;9.00;99.90
17599;DHT22;8918;52.092;5.232;2023-04-24T06:10:44;9.00;99.90
17599;DHT22;8918;52.092;5.232;2023-04-24T06:13:10;9.00;99.90
17599;DHT22;8918;52.092;5.232;2023-04-24T06:15:36;9.00;99.90
17599;DHT22;8918;52.092;5.232;2023-04-24T06:18:02;9.10;99.90
17599;DHT22;8918;52.092;5.232;2023-04-24T06:20:28;9.10;99.90
17599;DHT22;8918;52.092;5.232;2023-04-24T06:22:53;9.10;99.90
17599;DHT22;8918;52.092;5.232;2023-04-24T06:25:19;9.10;99.90
17599;DHT22;8918;52.092;5.232;2023-04-24T06:27:45;9.10;99.90
17599;DHT22;8918;52.092;5.232;2023-04-24T06:30:11;9.00;99.90
17599;DHT22;8918;52.092;5.232;2023-04-24T06:32:37;8.90;99.90
17599;DHT22;8918;52.092;5.232;2023-04-24T06:35:03;8.90;99.90
17599;DHT22;8918;52.092;5.232;2023-04-24T06:37:29;8.80;99.90
17599;DHT22;8918;52.092;5.232;2023-04-24T06:39:55;8.80;99.90
17599;DHT22;8918;52.092;5.232;2023-04-24T06:42:21;8.80;99.90
17599;DHT22;8918;52.092;5.232;2023-04-24T06:44:47;8.80;99.90
17599;DHT22;8918;52.092;5.232;2023-04-24T06:47:13;8.80;99.90
17599;DHT22;8918;52.092;5.232;2023-04-24T06:49:39;8.70;99.90
17599;DHT22;8918;52.092;5.232;2023-04-24T06:52:05;8.80;99.90
17599;DHT22;8918;52.092;5.232;2023-04-24T06:54:32;8.70;99.90
17599;DHT22;8918;52.092;5.232;2023-04-24T06:56:59;8.70;99.90
17599;DHT22;8918;52.092;5.232;2023-04-24T06:59:26;8.70;99.90
17599;DHT22;8918;52.092;5.232;2023-04-24T07:01:52;8.60;99.90
17599;DHT22;8918;52.092;5.232;2023-04-24T07:04:18;8.60;99.90
17599;DHT22;8918;52.092;5.232;2023-04-24T07:06:47;8.60;99.90
17599;DHT22;8918;52.092;5.232;2023-04-24T07:09:14;8.60;99.90
17599;DHT22;8918;52.092;5.232;2023-04-24T07:11:41;8.60;99.90
17599;DHT22;8918;52.092;5.232;2023-04-24T07:14:07;8.60;99.90
17599;DHT22;8918;52.092;5.232;2023-04-24T07:16:33;8.60;99.90
17599;DHT22;8918;52.092;5.232;2023-04-24T07:19:00;8.60;99.90
17599;DHT22;8918;52.092;5.232;2023-04-24T07:21:27;8.60;99.90
17599;DHT22;8918;52.092;5.232;2023-04-24T07:23:53;8.70;99.90
17599;DHT22;8918;52.092;5.232;2023-04-24T07:26:19;8.60;99.90
17599;DHT22;8918;52.092;5.232;2023-04-24T07:28:46;8.60;99.90
17599;DHT22;8918;52.092;5.232;2023-04-24T07:31:11;8.60;99.90
17599;DHT22;8918;52.092;5.232;2023-04-24T07:33:37;8.60;99.90
17599;DHT22;8918;52.092;5.232;2023-04-24T07:36:03;8.60;99.90
17599;DHT22;8918;52.092;5.232;2023-04-24T07:38:29;8.70;99.90
17599;DHT22;8918;52.092;5.232;2023-04-24T07:40:55;8.70;99.90
17599;DHT22;8918;52.092;5.232;2023-04-24T07:43:21;8.70;99.90
17599;DHT22;8918;52.092;5.232;2023-04-24T07:45:52;8.70;99.90
17599;DHT22;8918;52.092;5.232;2023-04-24T07:48:18;8.70;99.90
17599;DHT22;8918;52.092;5.232;2023-04-24T07:50:45;8.60;99.90
17599;DHT22;8918;52.092;5.232;2023-04-24T07:53:10;8.70;99.90
17599;DHT22;8918;52.092;5.232;2023-04-24T07:55:36;8.70;99.90
17599;DHT22;8918;52.092;5.232;2023-04-24T07:58:02;8.70;99.90
17599;DHT22;8918;52.092;5.232;2023-04-24T08:00:28;8.70;99.90
17599;DHT22;8918;52.092;5.232;2023-04-24T08:02:53;8.60;99.90
17599;DHT22;8918;52.092;5.232;2023-04-24T08:05:19;8.70;99.90
17599;DHT22;8918;52.092;5.232;2023-04-24T08:07:45;8.60;99.90
17599;DHT22;8918;52.092;5.232;2023-04-24T08:10:14;8.60;99.90
17599;DHT22;8918;52.092;5.232;2023-04-24T08:12:39;8.60;99.90
17599;DHT22;8918;52.092;5.232;2023-04-24T08:15:07;8.60;99.90
17599;DHT22;8918;52.092;5.232;2023-04-24T08:17:34;8.60;99.90
17599;DHT22;8918;52.092;5.232;2023-04-24T08:20:01;8.60;99.90
17599;DHT22;8918;52.092;5.232;2023-04-24T08:22:29;8.60;99.90
17599;DHT22;8918;52.092;5.232;2023-04-24T08:24:55;8.70;99.90
17599;DHT22;8918;52.092;5.232;2023-04-24T08:27:22;8.70;99.90
17599;DHT22;8918;52.092;5.232;2023-04-24T08:29:49;8.70;99.90
17599;DHT22;8918;52.092;5.232;2023-04-24T08:32:14;8.80;99.90
17599;DHT22;8918;52.092;5.232;2023-04-24T08:34:40;8.80;99.90
17599;DHT22;8918;52.092;5.232;2023-04-24T08:37:05;8.80;99.90
17599;DHT22;8918;52.092;5.232;2023-04-24T08:39:31;8.80;99.90
17599;DHT22;8918;52.092;5.232;2023-04-24T08:41:57;8.80;99.90
17599;DHT22;8918;52.092;5.232;2023-04-24T08:44:36;8.80;99.90
17599;DHT22;8918;52.092;5.232;2023-04-24T08:47:05;8.80;99.90
17599;DHT22;8918;52.092;5.232;2023-04-24T08:49:31;8.80;99.90
17599;DHT22;8918;52.092;5.232;2023-04-24T08:51:58;8.80;99.90
17599;DHT22;8918;52.092;5.232;2023-04-24T08:54:25;8.80;99.90
17599;DHT22;8918;52.092;5.232;2023-04-24T08:56:51;8.80;99.90
17599;DHT22;8918;52.092;5.232;2023-04-24T08:59:18;8.90;99.90
17599;DHT22;8918;52.092;5.232;2023-04-24T09:01:45;8.90;99.90
17599;DHT22;8918;52.092;5.232;2023-04-24T09:04:14;9.00;99.90
17599;DHT22;8918;52.092;5.232;2023-04-24T09:06:42;9.10;99.90
17599;DHT22;8918;52.092;5.232;2023-04-24T09:09:08;9.10;99.90
17599;DHT22;8918;52.092;5.232;2023-04-24T09:11:37;9.10;99.90
17599;DHT22;8918;52.092;5.232;2023-04-24T09:14:03;9.00;99.90
17599;DHT22;8918;52.092;5.232;2023-04-24T09:16:29;9.00;99.90
17599;DHT22;8918;52.092;5.232;2023-04-24T09:18:58;9.00;99.90
17599;DHT22;8918;52.092;5.232;2023-04-24T09:21:34;9.00;99.90
17599;DHT22;8918;52.092;5.232;2023-04-24T09:24:01;9.10;99.90
17599;DHT22;8918;52.092;5.232;2023-04-24T09:26:31;9.20;99.90
17599;DHT22;8918;52.092;5.232;2023-04-24T09:28:58;9.20;99.90
17599;DHT22;8918;52.092;5.232;2023-04-24T09:31:24;9.30;99.90
17599;DHT22;8918;52.092;5.232;2023-04-24T09:38:57;9.40;99.90
17599;DHT22;8918;52.092;5.232;2023-04-24T09:41:23;9.40;99.90
17599;DHT22;8918;52.092;5.232;2023-04-24T09:43:49;9.50;99.90
17599;DHT22;8918;52.092;5.232;2023-04-24T09:46:18;9.50;99.90
17599;DHT22;8918;52.092;5.232;2023-04-24T09:48:44;9.50;99.90
17599;DHT22;8918;52.092;5.232;2023-04-24T09:51:10;9.60;99.90
17599;DHT22;8918;52.092;5.232;2023-04-24T09:53:37;9.60;99.90
17599;DHT22;8918;52.092;5.232;2023-04-24T09:56:09;9.80;99.90
17599;DHT22;8918;52.092;5.232;2023-04-24T09:58:38;9.90;99.90
17599;DHT22;8918;52.092;5.232;2023-04-24T10:01:04;9.90;99.90
17599;DHT22;8918;52.092;5.232;2023-04-24T10:03:31;9.80;99.90
17599;DHT22;8918;52.092;5.232;2023-04-24T10:06:01;9.80;99.90
17599;DHT22;8918;52.092;5.232;2023-04-24T10:08:33;9.80;99.90
17599;DHT22;8918;52.092;5.232;2023-04-24T10:10:59;9.70;99.90
17599;DHT22;8918;52.092;5.232;2023-04-24T10:13:25;9.70;99.90
17599;DHT22;8918;52.092;5.232;2023-04-24T10:15:51;9.50;99.90
17599;DHT22;8918;52.092;5.232;2023-04-24T10:18:17;9.40;99.90
17599;DHT22;8918;52.092;5.232;2023-04-24T10:20:44;9.30;99.90
17599;DHT22;8918;52.092;5.232;2023-04-24T10:23:10;9.20;99.90
17599;DHT22;8918;52.092;5.232;2023-04-24T10:25:38;9.30;99.90
17599;DHT22;8918;52.092;5.232;2023-04-24T10:28:04;9.40;99.90
17599;DHT22;8918;52.092;5.232;2023-04-24T10:30:34;9.50;99.90
17599;DHT22;8918;52.092;5.232;2023-04-24T10:33:01;9.60;99.90
17599;DHT22;8918;52.092;5.232;2023-04-24T10:35:30;9.80;99.90
17599;DHT22;8918;52.092;5.232;2023-04-24T10:38:01;9.90;99.90
17599;DHT22;8918;52.092;5.232;2023-04-24T10:40:35;10.00;99.90
17599;DHT22;8918;52.092;5.232;2023-04-24T10:43:05;10.20;99.90
17599;DHT22;8918;52.092;5.232;2023-04-24T10:45:33;10.10;99.90
17599;DHT22;8918;52.092;5.232;2023-04-24T10:48:08;10.10;99.90
17599;DHT22;8918;52.092;5.232;2023-04-24T10:50:51;10.10;99.90
17599;DHT22;8918;52.092;5.232;2023-04-24T10:53:22;10.40;99.90
17599;DHT22;8918;52.092;5.232;2023-04-24T10:56:03;10.50;99.90
17599;DHT22;8918;52.092;5.232;2023-04-24T10:58:41;10.70;99.90
17599;DHT22;8918;52.092;5.232;2023-04-24T11:01:08;10.70;99.90
17599;DHT22;8918;52.092;5.232;2023-04-24T11:03:35;10.70;99.90
17599;DHT22;8918;52.092;5.232;2023-04-24T11:06:08;10.60;99.90
17599;DHT22;8918;52.092;5.232;2023-04-24T11:08:44;10.40;99.90
17599;DHT22;8918;52.092;5.232;2023-04-24T11:11:12;10.20;99.90
17599;DHT22;8918;52.092;5.232;2023-04-24T11:21:48;9.20;99.90
17599;DHT22;8918;52.092;5.232;2023-04-24T11:26:54;9.00;99.90
17599;DHT22;8918;52.092;5.232;2023-04-24T11:29:20;9.10;99.90
17599;DHT22;8918;52.092;5.232;2023-04-24T11:31:47;9.10;99.90
17599;DHT22;8918;52.092;5.232;2023-04-24T11:34:17;9.20;99.90
17599;DHT22;8918;52.092;5.232;2023-04-24T11:36:44;9.30;99.90
17599;DHT22;8918;52.092;5.232;2023-04-24T11:39:10;9.50;99.90
17599;DHT22;8918;52.092;5.232;2023-04-24T11:41:37;9.80;99.90
17599;DHT22;8918;52.092;5.232;2023-04-24T11:44:05;10.10;99.90
17599;DHT22;8918;52.092;5.232;2023-04-24T11:46:31;10.30;99.90
17599;DHT22;8918;52.092;5.232;2023-04-24T11:48:58;10.60;99.90
17599;DHT22;8918;52.092;5.232;2023-04-24T11:51:26;10.70;99.90
17599;DHT22;8918;52.092;5.232;2023-04-24T11:53:55;10.90;99.90
17599;DHT22;8918;52.092;5.232;2023-04-24T11:56:24;10.90;99.90
17599;DHT22;8918;52.092;5.232;2023-04-24T11:58:52;11.20;99.90
17599;DHT22;8918;52.092;5.232;2023-04-24T12:01:19;11.30;99.90
17599;DHT22;8918;52.092;5.232;2023-04-24T12:03:49;11.20;99.90
17599;DHT22;8918;52.092;5.232;2023-04-24T12:06:16;11.00;99.90
17599;DHT22;8918;52.092;5.232;2023-04-24T12:08:42;10.80;99.90
17599;DHT22;8918;52.092;5.232;2023-04-24T12:11:10;10.60;99.90
17599;DHT22;8918;52.092;5.232;2023-04-24T12:13:37;10.40;99.90
17599;DHT22;8918;52.092;5.232;2023-04-24T12:16:03;10.40;99.90
17599;DHT22;8918;52.092;5.232;2023-04-24T12:18:33;10.60;99.90
17599;DHT22;8918;52.092;5.232;2023-04-24T12:21:18;10.90;99.90
17599;DHT22;8918;52.092;5.232;2023-04-24T12:23:45;11.10;99.90
17599;DHT22;8918;52.092;5.232;2023-04-24T12:26:19;11.10;99.90
17599;DHT22;8918;52.092;5.232;2023-04-24T12:28:47;11.10;99.90
17599;DHT22;8918;52.092;5.232;2023-04-24T12:31:22;11.20;99.90
17599;DHT22;8918;52.092;5.232;2023-04-24T12:33:50;11.20;99.90
17599;DHT22;8918;52.092;5.232;2023-04-24T12:36:15;11.00;99.90
17599;DHT22;8918;52.092;5.232;2023-04-24T12:38:54;10.70;99.90
17599;DHT22;8918;52.092;5.232;2023-04-24T12:41:22;10.60;99.90
17599;DHT22;8918;52.092;5.232;2023-04-24T12:43:52;10.70;99.90
17599;DHT22;8918;52.092;5.232;2023-04-24T12:46:19;10.50;99.90
17599;DHT22;8918;52.092;5.232;2023-04-24T12:48:45;10.40;99.90
17599;DHT22;8918;52.092;5.232;2023-04-24T12:51:10;10.30;99.90
17599;DHT22;8918;52.092;5.232;2023-04-24T12:53:36;10.20;99.90
17599;DHT22;8918;52.092;5.232;2023-04-24T12:56:01;10.10;99.90
17599;DHT22;8918;52.092;5.232;2023-04-24T12:58:27;10.20;99.90
17599;DHT22;8918;52.092;5.232;2023-04-24T13:00:52;10.10;99.90
17599;DHT22;8918;52.092;5.232;2023-04-24T13:03:18;10.00;99.90
17599;DHT22;8918;52.092;5.232;2023-04-24T13:05:44;10.10;99.90
17599;DHT22;8918;52.092;5.232;2023-04-24T13:08:10;9.80;99.90
17599;DHT22;8918;52.092;5.232;2023-04-24T13:10:38;9.80;99.90
17599;DHT22;8918;52.092;5.232;2023-04-24T13:13:03;9.80;99.90
17599;DHT22;8918;52.092;5.232;2023-04-24T13:15:29;10.00;99.90
17599;DHT22;8918;52.092;5.232;2023-04-24T13:17:55;10.30;99.90
17599;DHT22;8918;52.092;5.232;2023-04-24T13:20:20;10.80;99.90
17599;DHT22;8918;52.092;5.232;2023-04-24T13:22:47;11.60;99.90
17599;DHT22;8918;52.092;5.232;2023-04-24T13:25:14;12.00;99.90
17599;DHT22;8918;52.092;5.232;2023-04-24T13:27:42;12.10;99.90
17599;DHT22;8918;52.092;5.232;2023-04-24T13:30:08;11.90;99.90
17599;DHT22;8918;52.092;5.232;2023-04-24T13:32:33;11.60;99.90
17599;DHT22;8918;52.092;5.232;2023-04-24T13:35:00;11.40;99.90
17599;DHT22;8918;52.092;5.232;2023-04-24T13:37:27;11.40;99.90
17599;DHT22;8918;52.092;5.232;2023-04-24T13:39:53;11.70;99.90
17599;DHT22;8918;52.092;5.232;2023-04-24T13:42:19;12.30;99.90
17599;DHT22;8918;52.092;5.232;2023-04-24T13:44:45;12.40;99.90
17599;DHT22;8918;52.092;5.232;2023-04-24T13:47:11;12.10;99.90
17599;DHT22;8918;52.092;5.232;2023-04-24T13:49:36;11.90;99.90
17599;DHT22;8918;52.092;5.232;2023-04-24T13:52:03;12.00;99.90
17599;DHT22;8918;52.092;5.232;2023-04-24T13:54:28;12.40;99.90
17599;DHT22;8918;52.092;5.232;2023-04-24T13:56:57;12.40;99.90
17599;DHT22;8918;52.092;5.232;2023-04-24T13:59:23;12.20;99.90
17599;DHT22;8918;52.092;5.232;2023-04-24T14:01:50;12.10;99.90
17599;DHT22;8918;52.092;5.232;2023-04-24T14:04:16;11.80;99.90
17599;DHT22;8918;52.092;5.232;2023-04-24T14:06:41;11.60;99.90
17599;DHT22;8918;52.092;5.232;2023-04-24T14:09:07;11.40;99.90
17599;DHT22;8918;52.092;5.232;2023-04-24T14:11:34;11.40;99.90
17599;DHT22;8918;52.092;5.232;2023-04-24T14:14:00;11.40;99.90
17599;DHT22;8918;52.092;5.232;2023-04-24T14:16:25;11.40;99.90
17599;DHT22;8918;52.092;5.232;2023-04-24T14:18:51;11.20;99.90
17599;DHT22;8918;52.092;5.232;2023-04-24T14:21:16;11.00;99.90
17599;DHT22;8918;52.092;5.232;2023-04-24T14:23:42;10.90;99.90
17599;DHT22;8918;52.092;5.232;2023-04-24T14:26:08;10.80;99.90
17599;DHT22;8918;52.092;5.232;2023-04-24T14:28:33;10.70;99.90
17599;DHT22;8918;52.092;5.232;2023-04-24T14:30:59;11.30;99.90
17599;DHT22;8918;52.092;5.232;2023-04-24T14:33:25;12.30;99.90
17599;DHT22;8918;52.092;5.232;2023-04-24T14:35:50;12.70;99.90
17599;DHT22;8918;52.092;5.232;2023-04-24T14:38:16;12.90;99.90
17599;DHT22;8918;52.092;5.232;2023-04-24T14:40:41;12.70;99.90
17599;DHT22;8918;52.092;5.232;2023-04-24T14:43:07;12.10;99.90
17599;DHT22;8918;52.092;5.232;2023-04-24T14:45:33;11.80;99.90
17599;DHT22;8918;52.092;5.232;2023-04-24T14:47:58;12.20;99.90
17599;DHT22;8918;52.092;5.232;2023-04-24T14:50:24;12.20;99.90
17599;DHT22;8918;52.092;5.232;2023-04-24T14:52:53;12.10;99.90
17599;DHT22;8918;52.092;5.232;2023-04-24T14:55:19;12.30;99.90
17599;DHT22;8918;52.092;5.232;2023-04-24T14:57:47;12.90;99.90
17599;DHT22;8918;52.092;5.232;2023-04-24T15:00:13;13.20;99.90
17599;DHT22;8918;52.092;5.232;2023-04-24T15:02:38;12.80;99.90
17599;DHT22;8918;52.092;5.232;2023-04-24T15:05:07;12.40;99.90
17599;DHT22;8918;52.092;5.232;2023-04-24T15:07:33;12.10;99.90
17599;DHT22;8918;52.092;5.232;2023-04-24T15:10:00;11.80;99.90
17599;DHT22;8918;52.092;5.232;2023-04-24T15:12:26;11.50;99.90
17599;DHT22;8918;52.092;5.232;2023-04-24T15:14:54;11.70;99.90
17599;DHT22;8918;52.092;5.232;2023-04-24T15:17:19;11.40;99.90
17599;DHT22;8918;52.092;5.232;2023-04-24T15:19:45;11.10;99.90
17599;DHT22;8918;52.092;5.232;2023-04-24T15:22:10;10.90;99.90
17599;DHT22;8918;52.092;5.232;2023-04-24T15:24:36;10.90;99.90
17599;DHT22;8918;52.092;5.232;2023-04-24T15:27:02;10.90;99.90
17599;DHT22;8918;52.092;5.232;2023-04-24T15:29:28;11.00;99.90
17599;DHT22;8918;52.092;5.232;2023-04-24T15:31:54;11.30;99.90
17599;DHT22;8918;52.092;5.232;2023-04-24T15:34:20;11.90;99.90
17599;DHT22;8918;52.092;5.232;2023-04-24T15:36:45;12.30;99.90
17599;DHT22;8918;52.092;5.232;2023-04-24T15:39:11;12.40;99.90
17599;DHT22;8918;52.092;5.232;2023-04-24T15:41:37;12.60;99.90
17599;DHT22;8918;52.092;5.232;2023-04-24T15:44:02;12.80;99.90
17599;DHT22;8918;52.092;5.232;2023-04-24T15:46:28;12.60;99.90
17599;DHT22;8918;52.092;5.232;2023-04-24T15:48:54;12.80;99.90
17599;DHT22;8918;52.092;5.232;2023-04-24T15:51:19;12.80;99.90
17599;DHT22;8918;52.092;5.232;2023-04-24T15:53:45;12.90;99.90
17599;DHT22;8918;52.092;5.232;2023-04-24T15:56:11;13.20;99.90
17599;DHT22;8918;52.092;5.232;2023-04-24T15:58:37;13.40;99.90
17599;DHT22;8918;52.092;5.232;2023-04-24T16:01:04;13.30;99.90
17599;DHT22;8918;52.092;5.232;2023-04-24T16:03:30;13.00;99.90
17599;DHT22;8918;52.092;5.232;2023-04-24T16:05:55;12.30;99.90
17599;DHT22;8918;52.092;5.232;2023-04-24T16:08:21;12.50;99.90